CSUN Campus Station - National Weather Service Data Page - PST Time




                Date      RH     Dew  Seasonal     Current   Max Air   Min Air    Wind    Wind    Wind    Gust     Bar    Rain
                Time       %   Point      Rain    Air Temp     Since     Since   Speed    Gust     Dir     Dir   Press   Total
                               Deg F    Inches       Deg F  Midnight  Midnight     MPH     MPH                      mb  Inches
------------------------------------------------------------------------------------------------------------------------------
    06/20/2017 00:00      59    57.4     20.89        72.4      96.8      65.1       2       3      81      94    1010    0.00
    06/20/2017 00:10      59    57.2     20.89        72.4      72.7      72.1       0       2      83      66    1010    0.00
    06/20/2017 00:20      60    57.3     20.89        72.1      72.7      71.9       1       2      73      82    1010    0.00
    06/20/2017 00:30      60    57.2     20.89        72.0      72.7      71.8       2       3      80      71    1010    0.00
    06/20/2017 00:40      61    57.3     20.89        71.9      72.7      71.6       2       3      74      75    1010    0.00
    06/20/2017 00:50      62    57.5     20.89        71.5      72.7      71.2       2       3      81      76    1010    0.00
    06/20/2017 01:00      62    57.5     20.89        71.3      72.7      71.0       3       4      86      84    1010    0.00
    06/20/2017 01:10      62    57.1     20.89        70.8      72.7      70.5       2       4      71      93    1010    0.00
    06/20/2017 01:20      63    57.0     20.89        70.5      72.7      70.2       1       3      76      73    1010    0.00
    06/20/2017 01:30      63    56.9     20.89        70.1      72.7      69.8       0       2      71      87    1010    0.00
    06/20/2017 01:40      63    57.0     20.89        70.0      72.7      69.8       2       3      71      53    1010    0.00
    06/20/2017 01:50      63    56.9     20.89        69.9      72.7      69.6       1       2      78      69    1010    0.00
    06/20/2017 02:00      65    56.8     20.89        69.5      72.7      69.0       0       2      99      79    1009    0.00
    06/20/2017 02:10      66    56.9     20.89        68.8      72.7      68.5       0       0       0     210    1009    0.00
    06/20/2017 02:20      66    56.7     20.89        68.4      72.7      68.0       0       0       0     258    1009    0.00
    06/20/2017 02:30      68    56.6     20.89        67.9      72.7      67.6       0       0     137     137    1009    0.00
    06/20/2017 02:40      68    57.1     20.89        67.8      72.7      67.6       0       2      69      68    1009    0.00
    06/20/2017 02:50      68    57.0     20.89        68.0      72.7      67.6       0       1     109     130    1009    0.00
    06/20/2017 03:00      70    57.2     20.89        67.7      72.7      67.4       0       2     163     141    1009    0.00
    06/20/2017 03:10      70    57.3     20.89        67.4      72.7      67.2       0       2     135     148    1009    0.00
    06/20/2017 03:20      70    57.2     20.89        67.3      72.7      67.1       0       1     160     162    1009    0.00
    06/20/2017 03:30      70    57.2     20.89        67.1      72.7      66.9       0       1     153     138    1009    0.00
    06/20/2017 03:40      70    57.1     20.89        67.1      72.7      66.7       0       0     313     314    1009    0.00
    06/20/2017 03:50      71    57.3     20.89        67.1      72.7      66.7       0       1     184     184    1009    0.00
    06/20/2017 04:00      72    57.4     20.89        66.7      72.7      66.4       0       2     145     167    1009    0.00
    06/20/2017 04:10      71    57.4     20.89        66.7      72.7      66.3       0       2     135     131    1009    0.00
    06/20/2017 04:20      72    57.1     20.89        66.5      72.7      66.2       0       1     149     139    1009    0.00
    06/20/2017 04:30      72    57.3     20.89        66.5      72.7      66.2       0       0       0     143    1009    0.00
    06/20/2017 04:40      72    57.4     20.89        66.6      72.7      66.2       0       0       0     143    1009    0.00
    06/20/2017 04:50      72    57.2     20.89        66.5      72.7      66.2       0       0       0      45    1010    0.00
    06/20/2017 05:00      73    57.4     20.89        66.2      72.7      66.0       0       0       0      39    1009    0.00
    06/20/2017 05:10      74    57.5     20.89        66.2      72.7      66.0       0       0       0     186    1010    0.00
    06/20/2017 05:20      74    57.8     20.89        66.3      72.7      66.0       0       0       0     188    1010    0.00
    06/20/2017 05:30      74    57.8     20.89        66.5      72.7      66.0       0       0       0     205    1010    0.00
    06/20/2017 05:40      73    58.1     20.89        66.8      72.7      66.0       0       2     158     161    1010    0.00
    06/20/2017 05:50      70    58.2     20.89        67.6      72.7      66.0       2       2     164     161    1010    0.00
    06/20/2017 06:00      63    58.4     20.89        69.9      72.7      66.0       0       2     156     162    1010    0.00
    06/20/2017 06:10      60    57.8     20.89        71.9      72.7      66.0       0       0     183     193    1010    0.00
    06/20/2017 06:20      58    58.1     20.89        72.9      74.0      66.0       1       2     155     167    1010    0.00
    06/20/2017 06:30      56    57.8     20.89        74.1      74.6      66.0       1       2     167     166    1010    0.00
    06/20/2017 06:40      55    57.5     20.89        74.2      74.8      66.0       1       2     171     154    1010    0.00
    06/20/2017 06:50      52    57.6     20.89        75.6      76.3      66.0       0       2     236     178    1010    0.00
    06/20/2017 07:00      51    57.5     20.89        76.5      77.2      66.0       0       2     225     256    1010    0.00
    06/20/2017 07:10      49    57.4     20.89        77.3      78.2      66.0       0       2     206     288    1010    0.00
    06/20/2017 07:20      49    57.1     20.89        77.5      78.2      66.0       2       4     249     231    1010    0.00
    06/20/2017 07:30      47    56.5     20.89        78.1      78.9      66.0       1       3     269     253    1010    0.00
    06/20/2017 07:40      44    56.3     20.89        79.3      80.0      66.0       2       4     241     266    1011    0.00
    06/20/2017 07:50      39    55.3     20.89        80.5      81.1      66.0       2       3     218     183    1010    0.00
    06/20/2017 08:00      39    54.3     20.89        81.0      81.7      66.0       1       3     190     119    1010    0.00
    06/20/2017 08:10      35    54.1     20.89        82.4      83.7      66.0       1       3     233     186    1011    0.00
    06/20/2017 08:20      35    53.1     20.89        83.5      83.8      66.0       2       4     158     147    1011    0.00
    06/20/2017 08:30      31    52.5     20.89        84.2      84.7      66.0       2       5     171     138    1010    0.00
    06/20/2017 08:40      32    51.2     20.89        84.5      85.5      66.0       2       4     192     180    1010    0.00
    06/20/2017 08:50      33    52.0     20.89        85.3      86.0      66.0       2       4     187     211    1010    0.00
    06/20/2017 09:00      29    51.5     20.89        86.3      86.7      66.0       2       5      83      74    1010    0.00
    06/20/2017 09:10      31    51.6     20.89        86.4      86.8      66.0       3       5      75      76    1010    0.00
    06/20/2017 09:20      29    51.4     20.89        87.3      88.0      66.0       2       5      70      94    1010    0.00
    06/20/2017 09:30      29    52.1     20.89        88.1      88.7      66.0       2       5      87      88    1010    0.00
    06/20/2017 09:40      27    52.0     20.89        88.9      89.4      66.0       3       7     161     162    1010    0.00
    06/20/2017 09:50      27    51.1     20.89        89.5      89.9      66.0       3       5     118      63    1010    0.00
    06/20/2017 10:00      27    51.7     20.89        90.3      90.9      66.0       3       7     102      90    1011    0.00
    06/20/2017 10:10      26    52.5     20.89        90.7      91.2      66.0       3       7     103      91    1010    0.00
    06/20/2017 10:20      27    51.9     20.89        91.1      91.7      66.0       2       6      89      30    1010    0.00
    06/20/2017 10:30      24    52.0     20.89        92.3      93.4      66.0       3       6     128     151    1010    0.00
    06/20/2017 10:40      25    51.6     20.89        92.4      93.4      66.0       3       6      93      65    1010    0.00
    06/20/2017 10:50      25    51.3     20.89        93.1      93.8      66.0       2       4      47      11    1010    0.00
    06/20/2017 11:00      24    52.3     20.89        94.3      95.0      66.0       2       7     162     152    1010    0.00
    06/20/2017 11:10      22    52.2     20.89        95.4      95.7      66.0       3       7     160     136    1010    0.00
    06/20/2017 11:20      23    52.0     20.89        95.1      96.0      66.0       4       7     169     163    1010    0.00
    06/20/2017 11:30      22    51.9     20.89        96.2      96.7      66.0       2       6     199     171    1010    0.00
    06/20/2017 11:40      22    52.1     20.89        96.7      98.1      66.0       4       7     178     172    1010    0.00
    06/20/2017 11:50      21    51.1     20.89        95.7      98.1      66.0       2       5     200     171    1010    0.00
    06/20/2017 12:00      22    51.3     20.89        97.0      98.1      66.0       2       5      68      92    1010    0.00
    06/20/2017 12:10      21    52.0     20.89        97.7      98.2      66.0       3       7     107      81    1009    0.00
    06/20/2017 12:20      21    51.8     20.89        98.4      99.2      66.0       3       8     132     164    1009    0.00
    06/20/2017 12:30      22    51.4     20.89        98.7      99.3      66.0       2       8     133     178    1009    0.00
    06/20/2017 12:40      24    53.9     20.89        99.7     100.0      66.0       5      11     125     149    1009    0.00
    06/20/2017 12:50      24    55.3     20.89        99.2     100.0      66.0       5       9     130     151    1009    0.00
    06/20/2017 13:00      23    55.5     20.89        99.2     100.0      66.0       4       9     123     151    1009    0.00
    06/20/2017 13:10      24    54.5     20.89        98.8     100.0      66.0       4       8     116     149    1009    0.00
    06/20/2017 13:20      22    53.6     20.89        98.7     100.0      66.0       6      11     102      81    1009    0.00
    06/20/2017 13:30      21    53.1     20.89        98.8     100.0      66.0       5      11     111      96    1009    0.00
    06/20/2017 13:40      22    53.5     20.89        98.6     100.0      66.0       5      11     119     150    1009    0.00
    06/20/2017 13:50      20    53.1     20.89        98.8     100.0      66.0       5      11     141     144    1008    0.00
    06/20/2017 14:00      20    51.4     20.89        99.0     100.0      66.0       5      12     133     148    1008    0.00
    06/20/2017 14:10      18    50.0     20.89        99.3     100.0      66.0       5      11     145     156    1008    0.00
    06/20/2017 14:20      18    49.8     20.89        99.2     100.0      66.0       3       8     138     106    1008    0.00
    06/20/2017 14:30      19    49.8     20.89        99.1     100.0      66.0       4       7     118     146    1008    0.00
    06/20/2017 14:40      22    51.2     20.89        98.9     100.0      66.0       5      11     117      91    1008    0.00
    06/20/2017 14:50      21    52.1     20.89        98.3     100.0      66.0       4       9     109      76    1008    0.00
    06/20/2017 15:00      20    51.0     20.89        98.5     100.0      66.0       4       8     101      89    1008    0.00
    06/20/2017 15:10      21    51.5     20.89        98.1     100.0      66.0       5       9     122      70    1008    0.00
    06/20/2017 15:20      21    51.0     20.89        98.7     100.0      66.0       3       6     117     142    1008    0.00
    06/20/2017 15:30      21    51.4     20.89        98.7     100.0      66.0       3       7     120      90    1008    0.00
    06/20/2017 15:40      21    52.0     20.89        98.6     100.0      66.0       4      10     107     112    1008    0.00
    06/20/2017 15:50      21    52.1     20.89        97.8     100.0      66.0       4       8     101      93    1008    0.00
    06/20/2017 16:00      20    52.0     20.89        98.3     100.0      66.0       3       8     106      79    1008    0.00
    06/20/2017 16:10      22    50.2     20.89        97.7     100.0      66.0       6      10      95      77    1008    0.00
    06/20/2017 16:20      21    51.5     20.89        96.8     100.0      66.0       4       9      99     117    1008    0.00
    06/20/2017 16:30      22    51.1     20.89        96.7     100.0      66.0       4       8      97      90    1008    0.00
    06/20/2017 16:40      21    51.1     20.89        96.8     100.0      66.0       4       9      95      90    1007    0.00
    06/20/2017 16:50      21    50.7     20.89        96.6     100.0      66.0       5       7      92      95    1007    0.00
    06/20/2017 17:00      22    50.7     20.89        96.8     100.0      66.0       5       9      87      95    1007    0.00
    06/20/2017 17:10      22    50.5     20.89        96.2     100.0      66.0       4       8     101     109    1007    0.00
    06/20/2017 17:20      22    50.3     20.89        96.2     100.0      66.0       3       7     112     138    1007    0.00
    06/20/2017 17:30      22    50.5     20.89        95.5     100.0      66.0       4       7     101      90    1007    0.00
    06/20/2017 17:40      23    50.4     20.89        94.8     100.0      66.0       4       7      98      87    1007    0.00
    06/20/2017 17:50      22    49.7     20.89        94.2     100.0      66.0       5       8      84      83    1007    0.00
    06/20/2017 18:00      22    49.7     20.89        94.0     100.0      66.0       4       7     100      79    1007    0.00
    06/20/2017 18:10      23    50.0     20.89        93.9     100.0      66.0       3       7     110      86    1007    0.00
    06/20/2017 18:20      24    50.6     20.89        93.1     100.0      66.0       3       6     107      73    1008    0.00
    06/20/2017 18:30      26    51.1     20.89        92.2     100.0      66.0       2       6     125      88    1008    0.00
    06/20/2017 18:40      26    51.7     20.89        91.5     100.0      66.0       2       5     138      84    1008    0.00
    06/20/2017 18:50      27    51.3     20.89        90.7     100.0      66.0       3       5      91      81    1008    0.00
    06/20/2017 19:00      27    51.5     20.89        89.8     100.0      66.0       1       4      82     136    1008    0.00
    06/20/2017 19:10      28    51.4     20.89        89.1     100.0      66.0       2       4      88      92    1008    0.00
    06/20/2017 19:20      30    51.8     20.89        88.5     100.0      66.0       0       2      94      66    1008    0.00
    06/20/2017 19:30      31    52.2     20.89        87.1     100.0      66.0       0       1     261     279    1008    0.00
    06/20/2017 19:40      31    52.4     20.89        86.5     100.0      66.0       2       5      81      89    1008    0.00
    06/20/2017 19:50      31    52.4     20.89        86.6     100.0      66.0       2       4      90      75    1008    0.00
    06/20/2017 20:00      31    52.2     20.89        86.3     100.0      66.0       2       3      76      91    1008    0.00
    06/20/2017 20:10      33    52.5     20.89        85.6     100.0      66.0       2       3     106      90    1008    0.00
    06/20/2017 20:20      34    52.9     20.89        85.0     100.0      66.0       1       3     105      79    1008    0.00
    06/20/2017 20:30      35    53.1     20.89        84.1     100.0      66.0       1       2     161     168    1008    0.00
    06/20/2017 20:40      36    53.2     20.89        83.2     100.0      66.0       1       2     172     153    1008    0.00
    06/20/2017 20:50      37    53.7     20.89        82.4     100.0      66.0       0       2      62      62    1008    0.00
    06/20/2017 21:00      35    52.8     20.89        82.3     100.0      66.0       2       3      82      93    1008    0.00
    06/20/2017 21:10      35    52.3     20.89        82.7     100.0      66.0       0       3      91      81    1008    0.00
    06/20/2017 21:20      36    52.5     20.89        82.0     100.0      66.0       1       2     145     154    1008    0.00
    06/20/2017 21:30      38    53.2     20.89        81.0     100.0      66.0       0       2     143     150    1008    0.00
    06/20/2017 21:40      40    53.7     20.89        80.5     100.0      66.0       1       2     155     145    1008    0.00
    06/20/2017 21:50      41    54.0     20.89        79.9     100.0      66.0       0       1     141     152    1008    0.00
    06/20/2017 22:00      43    54.6     20.89        79.7     100.0      66.0       0       2     145     166    1008    0.00
    06/20/2017 22:10      45    55.4     20.89        79.3     100.0      66.0       0       2     125     136    1008    0.00
    06/20/2017 22:20      43    55.5     20.89        79.2     100.0      66.0       1       3      81      70    1008    0.00
    06/20/2017 22:30      44    55.5     20.89        79.4     100.0      66.0       2       4      83      69    1008    0.00
    06/20/2017 22:40      46    55.9     20.89        78.9     100.0      66.0       1       3      78      66    1008    0.00
    06/20/2017 22:50      47    56.0     20.89        78.5     100.0      66.0       2       4      88      82    1008    0.00
    06/20/2017 23:00      48    56.3     20.89        78.0     100.0      66.0       2       4      81      83    1008    0.00
    06/20/2017 23:10      48    56.4     20.89        77.6     100.0      66.0       2       3      66      89    1008    0.00
    06/20/2017 23:20      48    55.9     20.89        77.3     100.0      66.0       3       4      69      49    1008    0.00
    06/20/2017 23:30      49    56.0     20.89        76.9     100.0      66.0       2       3      62      63    1008    0.00
    06/20/2017 23:40      49    56.0     20.89        76.6     100.0      66.0       2       4      73      58    1008    0.00
    06/20/2017 23:50      50    56.1     20.89        76.3     100.0      66.0       2       4      80      89    1008    0.00
    06/21/2017 00:00      51    56.2     20.89        75.9     100.0      66.0       2       4      85      80    1008    0.00
    06/21/2017 00:10      51    56.2     20.89        75.6      75.9      75.3       2       4      71      43    1008    0.00
    06/21/2017 00:20      52    56.2     20.89        75.3      75.9      74.9       0       2      60      89    1008    0.00
    06/21/2017 00:30      52    56.4     20.89        74.9      75.9      74.7       2       3      55      38    1008    0.00
    06/21/2017 00:40      53    56.3     20.89        75.0      75.9      74.5       1       3      89      39    1008    0.00
    06/21/2017 00:50      56    56.8     20.89        74.2      75.9      73.7       0       2     141     152    1008    0.00
    06/21/2017 01:00      56    56.9     20.89        73.5      75.9      73.3       0       3     104      82    1008    0.00
    06/21/2017 01:10      56    56.8     20.89        73.3      75.9      73.0       1       3      97      87    1008    0.00
    06/21/2017 01:20      56    56.9     20.89        73.5      75.9      73.0       2       3      71      53    1008    0.00
    06/21/2017 01:30      56    57.0     20.89        73.5      75.9      73.0       2       4      69      45    1008    0.00
    06/21/2017 01:40      56    56.7     20.89        73.4      75.9      73.0       2       4      54      44    1008    0.00
    06/21/2017 01:50      57    56.7     20.89        73.0      75.9      72.7       2       4      50      61    1008    0.00
    06/21/2017 02:00      57    56.5     20.89        72.8      75.9      72.6       2       3      46      34    1008    0.00
    06/21/2017 02:10      57    56.4     20.89        72.7      75.9      72.5       2       4      45      35    1008    0.00
    06/21/2017 02:20      57    56.6     20.89        72.7      75.9      72.5       2       3      50      51    1008    0.00
    06/21/2017 02:30      58    56.8     20.89        72.6      75.9      72.4       2       4      53      33    1007    0.00
    06/21/2017 02:40      58    56.7     20.89        72.4      75.9      72.1       0       2      81      91    1007    0.00
    06/21/2017 02:50      59    56.7     20.89        71.8      75.9      71.4       0       1     182     127    1007    0.00
    06/21/2017 03:00      61    56.7     20.89        71.2      75.9      70.9       0       1     151     136    1007    0.00
    06/21/2017 03:10      62    56.8     20.89        70.8      75.9      70.4       0       2     123      90    1007    0.00
    06/21/2017 03:20      63    57.3     20.89        70.5      75.9      70.2       0       0     112     115    1007    0.00
    06/21/2017 03:30      64    57.3     20.89        70.2      75.9      70.0       0       1     163     165    1007    0.00
    06/21/2017 03:40      65    57.4     20.89        70.0      75.9      69.8       1       2     143     129    1007    0.00
    06/21/2017 03:50      65    57.5     20.89        69.8      75.9      69.5       0       1     154     163    1007    0.00
    06/21/2017 04:00      66    57.3     20.89        69.5      75.9      69.2       0       0     166     166    1007    0.00
    06/21/2017 04:10      66    57.3     20.89        69.1      75.9      68.8       0       0     153     153    1007    0.00
    06/21/2017 04:20      68    57.4     20.89        68.8      75.9      68.4       0       1     133     150    1007    0.00
    06/21/2017 04:30      69    58.1     20.89        68.7      75.9      68.4       0       0       0     176    1007    0.00
    06/21/2017 04:40      69    57.9     20.89        68.5      75.9      68.3       0       1     143     152    1007    0.00
    06/21/2017 04:50      69    57.5     20.89        68.2      75.9      68.1       0       1     148     149    1007    0.00
    06/21/2017 05:00      69    57.8     20.89        68.3      75.9      68.1       0       0     154     154    1007    0.00
    06/21/2017 05:10      68    57.8     20.89        68.5      75.9      68.1       0       0       0     233    1007    0.00
    06/21/2017 05:20      70    58.0     20.89        68.5      75.9      68.1       0       0     181     187    1007    0.00
    06/21/2017 05:30      69    58.5     20.89        68.6      75.9      68.1       0       0     170     162    1007    0.00
    06/21/2017 05:40      68    58.2     20.89        68.9      75.9      68.1       0       1     180     178    1007    0.00
    06/21/2017 05:50      65    58.2     20.89        69.7      75.9      68.1       0       1     176     175    1007    0.00
    06/21/2017 06:00      57    57.9     20.89        72.0      75.9      68.1       0       0     175     178    1007    0.00
    06/21/2017 06:10      57    57.5     20.89        73.8      75.9      68.1       0       2     226     233    1007    0.00
    06/21/2017 06:20      54    57.9     20.89        74.9      75.9      68.1       1       2     158     199    1007    0.00
    06/21/2017 06:30      52    57.4     20.89        76.0      76.6      68.1       0       3     201     233    1007    0.00
    06/21/2017 06:40      52    56.9     20.89        75.8      76.6      68.1       1       3     265     246    1007    0.00
    06/21/2017 06:50      51    57.2     20.89        76.3      77.0      68.1       0       2     268     191    1007    0.00
    06/21/2017 07:00      46    57.2     20.89        78.1      79.0      68.1       0       2     183     155    1008    0.00
    06/21/2017 07:10      45    56.9     20.89        78.9      79.8      68.1       0       2     213     215    1008    0.00
    06/21/2017 07:20      44    56.5     20.89        79.9      80.6      68.1       0       2     174     185    1008    0.00
    06/21/2017 07:30      43    56.4     20.89        80.9      81.8      68.1       0       2     219     229    1008    0.00
    06/21/2017 07:40      41    56.3     20.89        81.5      82.2      68.1       1       3     170     151    1008    0.00
    06/21/2017 07:50      41    56.0     20.89        82.0      82.5      68.1       2       4     175     186    1008    0.00
    06/21/2017 08:00      38    55.1     20.89        82.7      83.2      68.1       2       5     223     198    1007    0.00
    06/21/2017 08:10      36    54.7     20.89        83.8      84.7      68.1       2       4     165     139    1007    0.00
    06/21/2017 08:20      34    54.1     20.89        85.1      85.8      68.1       1       3     186     186    1007    0.00
    06/21/2017 08:30      33    54.2     20.89        86.3      86.7      68.1       1       4     166     141    1007    0.00
    06/21/2017 08:40      31    54.0     20.89        86.8      87.3      68.1       1       3     128     135    1007    0.00
    06/21/2017 08:50      29    53.1     20.89        87.7      88.3      68.1       1       3     153     193    1007    0.00
    06/21/2017 09:00      28    52.7     20.89        88.2      89.5      68.1       0       2     149     173    1007    0.00
    06/21/2017 09:10      29    52.4     20.89        89.7      90.1      68.1       2       5     109     134    1007    0.00
    06/21/2017 09:20      27    52.9     20.89        90.8      91.4      68.1       2       5     107      94    1007    0.00
    06/21/2017 09:30      27    53.2     20.89        90.9      91.4      68.1       4       8     151     174    1007    0.00
    06/21/2017 09:40      26    52.7     20.89        91.8      92.6      68.1       2       6     185     163    1007    0.00
    06/21/2017 09:50      26    52.4     20.89        92.5      93.0      68.1       2       8     173     162    1007    0.00
    06/21/2017 10:00      25    52.7     20.89        93.2      93.7      68.1       4       7     162     155    1007    0.00
    06/21/2017 10:10      24    52.2     20.89        93.3      93.8      68.1       4       8     151     139    1007    0.00
    06/21/2017 10:20      24    52.0     20.89        93.9      94.7      68.1       2       8      97     152    1007    0.00
    06/21/2017 10:30      23    52.8     20.89        94.8      95.7      68.1       3       6     136     143    1007    0.00
    06/21/2017 10:40      24    52.9     20.89        95.6      96.3      68.1       3       8     142     164    1007    0.00
    06/21/2017 10:50      24    53.4     20.89        95.4      96.3      68.1       3       8     110      95    1007    0.00
    06/21/2017 11:00      25    54.5     20.89        96.1      96.6      68.1       4       9     131     126    1007    0.00
    06/21/2017 11:10      25    54.6     20.89        95.8      96.6      68.1       4      10     112      75    1007    0.00
    06/21/2017 11:20      25    54.7     20.89        96.0      96.6      68.1       5      10     112     101    1007    0.00
    06/21/2017 11:30      25    54.3     20.89        95.8      96.6      68.1       5      10      93      62    1006    0.00
    06/21/2017 11:40      25    54.9     20.89        96.6      97.0      68.1       5      11     112      93    1006    0.00
    06/21/2017 11:50      25    55.4     20.89        96.3      97.0      68.1       5      12     129     137    1006    0.00
    06/21/2017 12:00      24    54.6     20.89        96.1      97.0      68.1       4      10     107      84    1006    0.00
    06/21/2017 12:10      24    54.0     20.89        95.5      97.0      68.1       6      13     101      85    1006    0.00
    06/21/2017 12:20      24    53.3     20.89        95.9      97.0      68.1       5      10      96      75    1006    0.00
    06/21/2017 12:30      25    53.4     20.89        95.3      97.0      68.1       5      10     102      94    1006    0.00
    06/21/2017 12:40      24    53.5     20.89        95.5      97.0      68.1       6      13      99      88    1006    0.00
    06/21/2017 12:50      23    52.1     20.89        95.5      97.0      68.1       5      10     127      83    1006    0.00
    06/21/2017 13:00      23    51.1     20.89        96.0      97.0      68.1       4      10     117     127    1006    0.00
    06/21/2017 13:10      21    50.0     20.89        96.5      97.0      68.1       4       9     103     158    1006    0.00
    06/21/2017 13:20      21    50.5     20.89        96.8      97.1      68.1       5      11     103     101    1006    0.00
    06/21/2017 13:30      18    47.0     20.89        97.5      98.3      68.1       5      13      94      99    1006    0.00
    06/21/2017 13:40      20    48.5     20.89        96.4      98.3      68.1       6      11      96     108    1006    0.00
    06/21/2017 13:50      18    49.1     20.89        96.6      98.3      68.1       5      10     111      52    1006    0.00
    06/21/2017 14:00      17    46.1     20.89        96.9      98.3      68.1       4      10     128     152    1006    0.00
    06/21/2017 14:10      16    45.1     20.89        97.3      98.3      68.1       5       9     119     104    1006    0.00
    06/21/2017 14:20      17    43.9     20.89        96.5      98.3      68.1       6      12      96     113    1005    0.00
    06/21/2017 14:30      17    43.2     20.89        96.1      98.3      68.1       5      14     100      73    1005    0.00
    06/21/2017 14:40      17    44.4     20.89        96.4      98.3      68.1       5      12     111      62    1005    0.00
    06/21/2017 14:50      17    43.9     20.89        96.3      98.3      68.1       5      11     100     110    1005    0.00
    06/21/2017 15:00      16    44.5     20.89        96.5      98.3      68.1       5      11     112      91    1005    0.00
    06/21/2017 15:10      17    44.6     20.89        96.6      98.3      68.1       4       8     119     136    1005    0.00
    06/21/2017 15:20      17    45.0     20.89        96.6      98.3      68.1       4      12     103     107    1005    0.00
    06/21/2017 15:30      17    45.0     20.89        97.0      98.3      68.1       5      12      91      45    1005    0.00
    06/21/2017 15:40      17    44.4     20.89        96.5      98.3      68.1       5      10      88      97    1005    0.00
    06/21/2017 15:50      17    44.5     20.89        96.3      98.3      68.1       5      11      84      80    1005    0.00
    06/21/2017 16:00      16    44.3     20.89        97.1      98.3      68.1       3       6      93      69    1005    0.00
    06/21/2017 16:10      16    44.2     20.89        97.5      98.3      68.1       3       6     123     132    1004    0.00
    06/21/2017 16:20      16    43.4     20.89        97.2      98.4      68.1       5      10      83      32    1004    0.00
    06/21/2017 16:30      16    43.2     20.89        96.6      98.4      68.1       4      10      95      93    1004    0.00
    06/21/2017 16:40      16    42.7     20.89        96.3      98.4      68.1       5      10      84      75    1004    0.00
    06/21/2017 16:50      16    42.2     20.89        96.1      98.4      68.1       6       9      87      81    1004    0.00
    06/21/2017 17:00      16    41.7     20.89        95.5      98.4      68.1       5       9      82      71    1004    0.00
    06/21/2017 17:10      15    41.3     20.89        95.2      98.4      68.1       5      10      89     111    1004    0.00
    06/21/2017 17:20      17    40.8     20.89        94.4      98.4      68.1       5      10      92      84    1004    0.00
    06/21/2017 17:30      17    41.4     20.89        94.0      98.4      68.1       4       8     104     101    1004    0.00
    06/21/2017 17:40      17    41.9     20.89        93.2      98.4      68.1       4       9     101      86    1004    0.00
    06/21/2017 17:50      18    41.6     20.89        92.0      98.4      68.1       4       9      88      77    1004    0.00
    06/21/2017 18:00      18    41.8     20.89        91.2      98.4      68.1       4       8      97      68    1004    0.00
    06/21/2017 18:10      19    41.6     20.89        90.2      98.4      68.1       5       9      77      78    1004    0.00
    06/21/2017 18:20      21    43.4     20.89        89.0      98.4      68.1       5      10      81     112    1004    0.00
    06/21/2017 18:30      21    43.3     20.89        88.1      98.4      68.1       4       7      81      64    1005    0.00
    06/21/2017 18:40      22    44.2     20.89        87.4      98.4      68.1       4       8      84      58    1005    0.00
    06/21/2017 18:50      24    44.7     20.89        86.9      98.4      68.1       5       8      89      87    1005    0.00
    06/21/2017 19:00      25    46.1     20.89        86.2      98.4      68.1       4       8      78      66    1005    0.00
    06/21/2017 19:10      26    46.7     20.89        85.4      98.4      68.1       4       9      81      90    1005    0.00
    06/21/2017 19:20      27    46.6     20.89        84.7      98.4      68.1       4       6      82      81    1005    0.00
    06/21/2017 19:30      29    47.6     20.89        84.0      98.4      68.1       4       7      70      82    1005    0.00
    06/21/2017 19:40      30    48.5     20.89        83.3      98.4      68.1       4       7      57      63    1005    0.00
    06/21/2017 19:50      31    48.4     20.89        82.5      98.4      68.1       4       7      55      54    1005    0.00
    06/21/2017 20:00      31    48.5     20.89        81.8      98.4      68.1       3       7      68      47    1005    0.00
    06/21/2017 20:10      33    48.9     20.89        81.2      98.4      68.1       4       7      68      80    1005    0.00
    06/21/2017 20:20      34    49.1     20.89        80.5      98.4      68.1       4       8      73      61    1005    0.00
    06/21/2017 20:30      37    50.1     20.89        79.8      98.4      68.1       3       7      64      72    1006    0.00
    06/21/2017 20:40      37    50.9     20.89        79.2      98.4      68.1       3       5      45      32    1006    0.00
    06/21/2017 20:50      39    51.4     20.89        78.8      98.4      68.1       3       6      69      68    1006    0.00
    06/21/2017 21:00      41    52.1     20.89        78.4      98.4      68.1       3       6      60      49    1006    0.00
    06/21/2017 21:10      42    52.5     20.89        78.1      98.4      68.1       2       4      70      86    1006    0.00
    06/21/2017 21:20      42    52.6     20.89        77.7      98.4      68.1       2       4      84      69    1006    0.00
    06/21/2017 21:30      42    52.7     20.89        77.4      98.4      68.1       2       3      75      84    1006    0.00
    06/21/2017 21:40      43    53.1     20.89        77.2      98.4      68.1       3       4      78      57    1006    0.00
    06/21/2017 21:50      45    53.3     20.89        76.9      98.4      68.1       3       5      74      62    1006    0.00
    06/21/2017 22:00      46    53.8     20.89        76.6      98.4      68.1       3       5      80      75    1006    0.00
    06/21/2017 22:10      47    54.2     20.89        76.4      98.4      68.1       2       4      82      78    1006    0.00
    06/21/2017 22:20      48    54.5     20.89        76.0      98.4      68.1       2       3      74      93    1006    0.00
    06/21/2017 22:30      49    54.9     20.89        75.7      98.4      68.1       2       4      59      59    1006    0.00
    06/21/2017 22:40      49    55.1     20.89        75.4      98.4      68.1       3       4      48      38    1006    0.00
    06/21/2017 22:50      50    55.1     20.89        75.3      98.4      68.1       3       5      68      43    1006    0.00
    06/21/2017 23:00      51    55.3     20.89        75.0      98.4      68.1       2       4      75      70    1006    0.00
    06/21/2017 23:10      52    55.5     20.89        74.7      98.4      68.1       2       5      90      90    1006    0.00
    06/21/2017 23:20      52    55.6     20.89        74.4      98.4      68.1       2       4      90      92    1006    0.00
    06/21/2017 23:30      54    55.8     20.89        74.0      98.4      68.1       2       5     100      92    1006    0.00
    06/21/2017 23:40      55    55.9     20.89        73.5      98.4      68.1       1       3     145      89    1006    0.00
    06/21/2017 23:50      56    56.0     20.89        72.7      98.4      68.1       1       2     119      91    1006    0.00
    06/22/2017 00:00      57    56.2     20.89        72.5      98.4      68.1       1       3     103      87    1006    0.00
    06/22/2017 00:10      57    56.3     20.89        72.5      72.7      72.3       2       4      91      86    1006    0.00
    06/22/2017 00:20      58    56.3     20.89        72.2      72.7      72.0       2       4      89      85    1006    0.00
    06/22/2017 00:30      58    56.3     20.89        72.0      72.7      71.7       2       4      80      94    1006    0.00
    06/22/2017 00:40      59    56.3     20.89        71.6      72.7      71.3       3       4      70      57    1006    0.00
    06/22/2017 00:50      59    56.3     20.89        71.3      72.7      71.0       2       4      75      76    1006    0.00
    06/22/2017 01:00      60    56.3     20.89        70.9      72.7      70.6       3       4      72      80    1006    0.00
    06/22/2017 01:10      61    56.2     20.89        70.5      72.7      70.2       3       5      76      80    1006    0.00
    06/22/2017 01:20      62    56.2     20.89        70.1      72.7      69.8       3       5      71      73    1006    0.00
    06/22/2017 01:30      63    56.2     20.89        69.7      72.7      69.3       2       4      82      76    1006    0.00
    06/22/2017 01:40      63    56.1     20.89        69.2      72.7      68.9       1       3      91      76    1006    0.00
    06/22/2017 01:50      64    56.0     20.89        68.8      72.7      68.4       2       5      93      99    1006    0.00
    06/22/2017 02:00      65    56.0     20.89        68.4      72.7      68.0       2       5      95     105    1006    0.00
    06/22/2017 02:10      66    56.0     20.89        67.9      72.7      67.7       2       4      75      78    1006    0.00
    06/22/2017 02:20      67    56.1     20.89        67.7      72.7      67.5       2       4      74      94    1006    0.00
    06/22/2017 02:30      67    56.1     20.89        67.4      72.7      67.1       3       5      71      92    1006    0.00
    06/22/2017 02:40      68    56.1     20.89        67.2      72.7      66.9       2       5      83      84    1006    0.00
    06/22/2017 02:50      69    56.1     20.89        66.9      72.7      66.7       2       4      71      73    1006    0.00
    06/22/2017 03:00      69    56.2     20.89        66.8      72.7      66.6       2       4      73      78    1006    0.00
    06/22/2017 03:10      70    56.2     20.89        66.6      72.7      66.4       2       4      81      84    1006    0.00
    06/22/2017 03:20      70    56.4     20.89        66.4      72.7      66.2       2       4     107      89    1006    0.00
    06/22/2017 03:30      71    56.2     20.89        66.1      72.7      65.9       2       4      78      72    1006    0.00
    06/22/2017 03:40      71    56.2     20.89        65.8      72.7      65.5       2       4      74      99    1006    0.00
    06/22/2017 03:50      72    56.3     20.89        65.6      72.7      65.4       2       4      70      46    1006    0.00
    06/22/2017 04:00      73    56.4     20.89        65.3      72.7      65.0       3       5      73      73    1006    0.00
    06/22/2017 04:10      74    56.5     20.89        65.0      72.7      64.8       2       4      76      71    1006    0.00
    06/22/2017 04:20      75    56.5     20.89        64.8      72.7      64.6       2       3      86      98    1006    0.00
    06/22/2017 04:30      75    56.5     20.89        64.6      72.7      64.5       2       3      64      62    1006    0.00
    06/22/2017 04:40      76    56.5     20.89        64.5      72.7      64.3       1       3      62      86    1006    0.00
    06/22/2017 04:50      76    56.5     20.89        64.3      72.7      64.1       1       3      65      90    1007    0.00
    06/22/2017 05:00      77    56.6     20.89        64.1      72.7      63.9       2       3      73      57    1007    0.00
    06/22/2017 05:10      77    56.8     20.89        64.1      72.7      63.9       2       3      78     111    1007    0.00
    06/22/2017 05:20      78    57.0     20.89        64.1      72.7      63.9       2       4      83      80    1007    0.00
    06/22/2017 05:30      77    57.1     20.89        64.2      72.7      63.9       2       4      81      77    1007    0.00
    06/22/2017 05:40      77    57.1     20.89        64.3      72.7      63.9       2       3      93      73    1007    0.00
    06/22/2017 05:50      77    57.3     20.89        64.6      72.7      63.9       2       3      98      86    1007    0.00
    06/22/2017 06:00      73    57.6     20.89        65.9      72.7      63.9       1       3     113      87    1007    0.00
    06/22/2017 06:10      71    57.4     20.89        67.0      72.7      63.9       1       4     115     118    1007    0.00
    06/22/2017 06:20      68    57.4     20.89        68.0      72.7      63.9       2       4     158     138    1007    0.00
    06/22/2017 06:30      68    57.1     20.89        68.3      72.7      63.9       2       4      94      91    1007    0.00
    06/22/2017 06:40      66    57.3     20.89        68.5      72.7      63.9       2       4     109     168    1008    0.00
    06/22/2017 06:50      66    57.2     20.89        69.0      72.7      63.9       2       4      83      76    1008    0.00
    06/22/2017 07:00      64    57.2     20.89        69.3      72.7      63.9       2       5      91     107    1008    0.00
    06/22/2017 07:10      63    57.3     20.89        70.1      72.7      63.9       1       4      93      83    1008    0.00
    06/22/2017 07:20      61    57.5     20.89        71.3      72.7      63.9       2       5     109      87    1008    0.00
    06/22/2017 07:30      59    57.5     20.89        71.9      72.7      63.9       2       4     134     140    1008    0.00
    06/22/2017 07:40      60    57.5     20.89        72.3      72.7      63.9       3       5     154     139    1008    0.00
    06/22/2017 07:50      58    57.7     20.89        72.8      73.4      63.9       2       5     115      78    1008    0.00
    06/22/2017 08:00      58    57.6     20.89        73.5      73.8      63.9       2       5     122     103    1008    0.00
    06/22/2017 08:10      56    57.5     20.89        73.6      74.1      63.9       3       7     131     145    1008    0.00
    06/22/2017 08:20      56    57.5     20.89        74.4      74.8      63.9       3       5     119      87    1008    0.00
    06/22/2017 08:30      54    57.3     20.89        74.4      74.8      63.9       4       6      82      86    1009    0.00
    06/22/2017 08:40      52    57.7     20.89        75.2      76.2      63.9       3       6     110     159    1009    0.00
    06/22/2017 08:50      52    57.3     20.89        76.0      76.3      63.9       4       7      95     118    1009    0.00
    06/22/2017 09:00      51    57.4     20.89        76.3      77.1      63.9       3       6      99      84    1009    0.00
    06/22/2017 09:10      51    57.3     20.89        76.9      77.4      63.9       5       9     102      86    1009    0.00
    06/22/2017 09:20      49    56.9     20.89        77.2      77.7      63.9       4       7      83      76    1009    0.00
    06/22/2017 09:30      49    57.0     20.89        77.7      78.1      63.9       4       7     109     134    1009    0.00
    06/22/2017 09:40      47    56.9     20.89        78.4      79.1      63.9       4       9     111      76    1009    0.00
    06/22/2017 09:50      46    57.5     20.89        78.9      79.9      63.9       3       8     111      95    1009    0.00
    06/22/2017 10:00      46    57.0     20.89        79.7      79.9      63.9       3       5     109      81    1009    0.00
    06/22/2017 10:10      47    57.0     20.89        79.4      80.0      63.9       4       9     120      88    1009    0.00
    06/22/2017 10:20      45    57.3     20.89        79.8      80.2      63.9       4       8      95     147    1009    0.00
    06/22/2017 10:30      46    56.7     20.89        80.1      80.5      63.9       4       8      77      52    1009    0.00
    06/22/2017 10:40      43    57.4     20.89        80.8      81.5      63.9       4       9     132     128    1009    0.00
    06/22/2017 10:50      43    56.8     20.89        81.2      81.5      63.9       4       8     104     127    1009    0.00
    06/22/2017 11:00      42    57.3     20.89        81.5      82.2      63.9       5       8     134     126    1009    0.00
    06/22/2017 11:10      41    56.9     20.89        82.8      83.3      63.9       3       8     115     148    1009    0.00
    06/22/2017 11:20      40    57.3     20.89        83.3      83.9      63.9       4       7     127     172    1009    0.00
    06/22/2017 11:30      41    57.0     20.89        83.6      83.9      63.9       4      10     114     149    1009    0.00
    06/22/2017 11:40      41    56.9     20.89        83.4      83.9      63.9       4       9     127     118    1009    0.00
    06/22/2017 11:50      40    56.9     20.89        83.6      84.1      63.9       5      10     135      88    1009    0.00
    06/22/2017 12:00      40    56.7     20.89        82.9      84.1      63.9       5      10     122      90    1009    0.00
    06/22/2017 12:10      41    56.7     20.89        83.0      84.1      63.9       6      11      94      73    1009    0.00
    06/22/2017 12:20      41    56.9     20.89        82.7      84.1      63.9       5      10     114      64    1009    0.00
    06/22/2017 12:30      40    56.5     20.89        83.1      84.1      63.9       4       9      96     122    1009    0.00
    06/22/2017 12:40      39    55.7     20.89        83.4      84.1      63.9       4       8     105     100    1009    0.00
    06/22/2017 12:50      39    55.7     20.89        84.0      84.5      63.9       5      10     134     178    1009    0.00
    06/22/2017 13:00      38    55.4     20.89        83.6      84.5      63.9       4       8     119      97    1009    0.00
    06/22/2017 13:10      36    55.7     20.89        84.6      85.3      63.9       4       9     130     141    1009    0.00
    06/22/2017 13:20      36    55.0     20.89        85.0      85.4      63.9       4       9     116     217    1008    0.00
    06/22/2017 13:30      35    55.0     20.89        85.5      86.0      63.9       4       9      99     159    1008    0.00
    06/22/2017 13:40      35    54.5     20.89        84.9      86.0      63.9       4       8      91     112    1008    0.00
    06/22/2017 13:50      35    54.8     20.89        85.8      86.3      63.9       4       8     132     186    1008    0.00
    06/22/2017 14:00      33    54.9     20.89        86.2      86.6      63.9       4       8     123      84    1008    0.00
    06/22/2017 14:10      35    54.5     20.89        86.0      86.6      63.9       5       9      96      83    1008    0.00
    06/22/2017 14:20      35    55.0     20.89        86.5      86.9      63.9       3       7     126     132    1008    0.00
    06/22/2017 14:30      34    54.5     20.89        86.6      86.9      63.9       5      11     118      94    1008    0.00
    06/22/2017 14:40      33    54.1     20.89        85.9      86.9      63.9       5       8     115     127    1008    0.00
    06/22/2017 14:50      35    54.1     20.89        86.5      87.2      63.9       4       7     118      86    1008    0.00
    06/22/2017 15:00      32    54.0     20.89        86.8      87.2      63.9       4       7     116      63    1008    0.00
    06/22/2017 15:10      31    53.3     20.89        87.1      87.6      63.9       3       7     129     143    1008    0.00
    06/22/2017 15:20      31    53.0     20.89        86.7      87.6      63.9       3       7     112      82    1008    0.00
    06/22/2017 15:30      32    52.6     20.89        86.6      87.6      63.9       3       7     107     130    1008    0.00
    06/22/2017 15:40      33    53.3     20.89        86.7      87.6      63.9       4       9      99      87    1008    0.00
    06/22/2017 15:50      33    53.6     20.89        86.3      87.6      63.9       4       8     119     130    1008    0.00
    06/22/2017 16:00      33    53.7     20.89        86.4      87.6      63.9       4      10     119     109    1008    0.00
    06/22/2017 16:10      33    53.7     20.89        86.3      87.6      63.9       4      10     129     137    1008    0.00
    06/22/2017 16:20      34    53.7     20.89        86.3      87.6      63.9       3      11     126     142    1008    0.00
    06/22/2017 16:30      34    53.9     20.89        85.4      87.6      63.9       4       8     113      86    1008    0.00
    06/22/2017 16:40      35    53.5     20.89        84.8      87.6      63.9       4       8      98      77    1007    0.00
    06/22/2017 16:50      35    53.7     20.89        84.8      87.6      63.9       4       8     118     102    1007    0.00
    06/22/2017 17:00      36    53.8     20.89        84.4      87.6      63.9       4       8      98      89    1007    0.00
    06/22/2017 17:10      35    53.8     20.89        83.8      87.6      63.9       4       9     104     119    1008    0.00
    06/22/2017 17:20      39    53.8     20.89        82.7      87.6      63.9       6      11      91      83    1008    0.00
    06/22/2017 17:30      39    54.7     20.89        82.2      87.6      63.9       4      10      89      48    1008    0.00
    06/22/2017 17:40      41    55.0     20.89        81.4      87.6      63.9       4       9      89      88    1008    0.00
    06/22/2017 17:50      43    55.3     20.89        80.7      87.6      63.9       5       8      76      70    1008    0.00
    06/22/2017 18:00      43    55.7     20.89        79.9      87.6      63.9       4       7      86      69    1008    0.00
    06/22/2017 18:10      45    55.7     20.89        79.2      87.6      63.9       5       9      77      87    1008    0.00
    06/22/2017 18:20      46    55.9     20.89        78.4      87.6      63.9       5       7      81      92    1008    0.00
    06/22/2017 18:30      48    56.1     20.89        77.8      87.6      63.9       4       8      81      72    1008    0.00
    06/22/2017 18:40      49    56.3     20.89        77.3      87.6      63.9       3       8     109     128    1008    0.00
    06/22/2017 18:50      50    56.4     20.89        76.4      87.6      63.9       3       9      90      86    1008    0.00
    06/22/2017 19:00      52    56.6     20.89        75.8      87.6      63.9       4       7      93      94    1009    0.00
    06/22/2017 19:10      53    56.6     20.89        75.1      87.6      63.9       4       7      87     112    1009    0.00
    06/22/2017 19:20      55    56.6     20.89        74.3      87.6      63.9       3       6     102      98    1009    0.00
    06/22/2017 19:30      56    56.6     20.89        73.7      87.6      63.9       2       5     109      99    1009    0.00
    06/22/2017 19:40      56    56.7     20.89        73.3      87.6      63.9       4       8      71      78    1009    0.00
    06/22/2017 19:50      57    56.5     20.89        72.7      87.6      63.9       5       8      76      76    1009    0.00
    06/22/2017 20:00      58    56.5     20.89        72.2      87.6      63.9       4       8      85      60    1009    0.00
    06/22/2017 20:10      60    56.6     20.89        71.7      87.6      63.9       4       8      81      73    1009    0.00
    06/22/2017 20:20      61    56.7     20.89        71.0      87.6      63.9       3       7      83      89    1009    0.00
    06/22/2017 20:30      62    56.9     20.89        70.6      87.6      63.9       3       6      92      94    1009    0.00
    06/22/2017 20:40      63    57.0     20.89        70.4      87.6      63.9       3       6      84      73    1010    0.00
    06/22/2017 20:50      64    57.1     20.89        70.2      87.6      63.9       3       5      83      99    1010    0.00
    06/22/2017 21:00      64    57.2     20.89        70.0      87.6      63.9       2       3      87      58    1010    0.00
    06/22/2017 21:10      64    57.2     20.89        69.8      87.6      63.9       2       4      84     143    1010    0.00
    06/22/2017 21:20      65    57.2     20.89        69.7      87.6      63.9       3       5      87     110    1010    0.00
    06/22/2017 21:30      65    57.2     20.89        69.6      87.6      63.9       2       5      85      84    1010    0.00
    06/22/2017 21:40      65    57.2     20.89        69.5      87.6      63.9       2       5      91      99    1010    0.00
    06/22/2017 21:50      66    57.3     20.89        69.3      87.6      63.9       3       6     102      92    1010    0.00
    06/22/2017 22:00      68    57.3     20.89        68.8      87.6      63.9       3       6     102      87    1011    0.00
    06/22/2017 22:10      69    57.2     20.89        68.0      87.6      63.9       2       6     115      78    1011    0.00
    06/22/2017 22:20      71    57.3     20.89        67.4      87.6      63.9       3       6      87      75    1011    0.00
    06/22/2017 22:30      71    57.3     20.89        67.0      87.6      63.9       2       6     108      89    1011    0.00
    06/22/2017 22:40      72    57.2     20.89        66.7      87.6      63.9       2       5     118     103    1010    0.00
    06/22/2017 22:50      73    57.3     20.89        66.3      87.6      63.9       2       5     107      81    1010    0.00
    06/22/2017 23:00      74    57.1     20.89        65.9      87.6      63.9       2       5     108     141    1010    0.00
    06/22/2017 23:10      75    57.1     20.89        65.3      87.6      63.9       2       5     114      86    1010    0.00
    06/22/2017 23:20      76    57.2     20.89        64.9      87.6      63.9       2       6     110      95    1010    0.00
    06/22/2017 23:30      78    57.1     20.89        64.3      87.6      63.9       2       4     101      82    1010    0.00
    06/22/2017 23:40      79    57.2     20.89        64.1      87.6      63.9       2       4     109     111    1010    0.00
    06/22/2017 23:50      79    57.3     20.89        64.0      87.6      63.7       2       4     111      85    1010    0.00
    06/23/2017 00:00      80    57.3     20.89        63.7      87.6      63.5       2       6      84      69    1010    0.00
    06/23/2017 00:10      81    57.3     20.89        63.4      63.7      63.1       3       6      86      86    1010    0.00
    06/23/2017 00:20      82    57.4     20.89        63.1      63.7      62.9       2       6      97      86    1010    0.00
    06/23/2017 00:30      82    57.6     20.89        63.0      63.7      62.9       2       4     102      98    1010    0.00
    06/23/2017 00:40      82    57.6     20.89        63.1      63.7      62.9       2       4     119      94    1010    0.00
    06/23/2017 00:50      82    57.6     20.89        63.1      63.7      62.9       1       3     110     166    1010    0.00
    06/23/2017 01:00      82    57.7     20.89        63.1      63.7      62.9       2       5     116      82    1011    0.00
    06/23/2017 01:10      82    57.7     20.89        63.2      63.7      62.9       2       4     134     180    1011    0.00
    06/23/2017 01:20      82    57.7     20.89        63.2      63.7      62.9       2       3      91      51    1010    0.00
    06/23/2017 01:30      82    57.7     20.89        63.3      63.7      62.9       2       4      96      69    1011    0.00
    06/23/2017 01:40      82    57.6     20.89        63.2      63.7      62.9       1       3     130      96    1010    0.00
    06/23/2017 01:50      82    57.8     20.89        63.3      63.7      62.9       1       3     126     157    1010    0.00
    06/23/2017 02:00      82    57.8     20.89        63.3      63.7      62.9       0       4      87      64    1010    0.00
    06/23/2017 02:10      82    57.7     20.89        63.3      63.7      62.9       3       5      86      57    1010    0.00
    06/23/2017 02:20      82    57.7     20.89        63.3      63.7      62.9       1       4     147     167    1010    0.00
    06/23/2017 02:30      82    57.8     20.89        63.4      63.7      62.9       1       3     141      88    1010    0.00
    06/23/2017 02:40      81    57.8     20.89        63.5      63.8      62.9       2       4     151     142    1010    0.00
    06/23/2017 02:50      81    57.8     20.89        63.7      63.9      62.9       2       3     128     145    1010    0.00
    06/23/2017 03:00      81    57.8     20.89        63.8      64.0      62.9       0       3     134     111    1010    0.00
    06/23/2017 03:10      80    57.8     20.89        63.9      64.1      62.9       0       3     344      18    1010    0.00
    06/23/2017 03:20      80    57.7     20.89        64.0      64.2      62.9       1       3     324     341    1010    0.00
    06/23/2017 03:30      80    57.5     20.89        63.9      64.2      62.9       1       4     288     324    1010    0.00
    06/23/2017 03:40      81    57.4     20.89        63.5      64.2      62.9       1       3     256     282    1010    0.00
    06/23/2017 03:50      81    57.5     20.89        63.6      64.2      62.9       1       3     303     275    1010    0.00
    06/23/2017 04:00      81    57.5     20.89        63.4      64.2      62.9       1       3     265     246    1010    0.00
    06/23/2017 04:10      81    57.7     20.89        63.6      64.2      62.9       1       3     310     288    1010    0.00
    06/23/2017 04:20      81    57.6     20.89        63.6      64.2      62.9       1       2     306     292    1010    0.00
    06/23/2017 04:30      81    57.5     20.89        63.5      64.2      62.9       0       2     320     335    1010    0.00
    06/23/2017 04:40      81    57.5     20.89        63.4      64.2      62.9       0       2     148     164    1010    0.00
    06/23/2017 04:50      82    57.5     20.89        63.3      64.2      62.9       1       2     199     213    1010    0.00
    06/23/2017 05:00      82    57.6     20.89        63.2      64.2      62.9       0       2     222     235    1011    0.00
    06/23/2017 05:10      82    57.7     20.89        63.3      64.2      62.9       0       1     279     276    1011    0.00
    06/23/2017 05:20      81    57.9     20.89        63.6      64.2      62.9       0       2     318      77    1011    0.00
    06/23/2017 05:30      81    58.1     20.89        64.0      64.3      62.9       2       3     136     143    1011    0.00
    06/23/2017 05:40      80    58.2     20.89        64.4      64.8      62.9       0       2     128     148    1011    0.00
    06/23/2017 05:50      79    57.9     20.89        64.6      64.8      62.9       0       3     192     132    1011    0.00
    06/23/2017 06:00      78    57.9     20.89        64.8      65.0      62.9       2       3      69      62    1011    0.00
    06/23/2017 06:10      77    57.9     20.89        65.0      65.3      62.9       1       3      81      35    1011    0.00
    06/23/2017 06:20      76    57.8     20.89        65.3      65.5      62.9       2       4      87      90    1011    0.00
    06/23/2017 06:30      75    57.8     20.89        65.7      66.1      62.9       2       4     104      77    1011    0.00
    06/23/2017 06:40      73    57.9     20.89        66.3      66.9      62.9       2       3     129     150    1011    0.00
    06/23/2017 06:50      72    57.8     20.89        67.2      67.6      62.9       2       3     142     149    1011    0.00
    06/23/2017 07:00      71    57.7     20.89        67.0      67.6      62.9       1       3     184     209    1011    0.00
    06/23/2017 07:10      69    57.7     20.89        67.7      68.4      62.9       1       3     238     246    1011    0.00
    06/23/2017 07:20      67    57.7     20.89        68.7      69.1      62.9       0       3     171     284    1011    0.00
    06/23/2017 07:30      66    57.7     20.89        69.3      69.7      62.9       2       4     242     236    1011    0.00
    06/23/2017 07:40      62    57.9     20.89        70.6      71.6      62.9       0       3     149     191    1011    0.00
    06/23/2017 07:50      63    57.5     20.89        71.1      71.7      62.9       1       4     136     122    1012    0.00
    06/23/2017 08:00      60    57.6     20.89        71.3      72.1      62.9       1       3     241     220    1011    0.00
    06/23/2017 08:10      58    58.0     20.89        72.7      73.9      62.9       1       3     274     229    1011    0.00
    06/23/2017 08:20      55    58.2     20.89        74.5      75.3      62.9       1       4     107      86    1011    0.00
    06/23/2017 08:30      56    58.0     20.89        74.6      75.3      62.9       2       6     175     208    1011    0.00
    06/23/2017 08:40      57    58.1     20.89        74.2      75.3      62.9       3       6     158     168    1011    0.00
    06/23/2017 08:50      55    58.5     20.89        75.4      76.0      62.9       3       6     164     158    1011    0.00
    06/23/2017 09:00      52    58.2     20.89        76.3      76.9      62.9       3       7     146     155    1011    0.00
    06/23/2017 09:10      51    57.9     20.89        77.0      77.6      62.9       3       6     150     147    1011    0.00
    06/23/2017 09:20      49    58.0     20.89        78.1      78.6      62.9       3       5     111     143    1011    0.00
    06/23/2017 09:30      49    57.9     20.89        78.3      78.9      62.9       3       7     137     171    1011    0.00
    06/23/2017 09:40      46    57.9     20.89        79.4      79.9      62.9       3       6     130     159    1011    0.00
    06/23/2017 09:50      46    57.5     20.89        79.5      80.1      62.9       3       5     129     156    1011    0.00
    06/23/2017 10:00      43    57.5     20.89        80.7      81.9      62.9       2       6     119     157    1011    0.00
    06/23/2017 10:10      44    56.8     20.89        81.6      82.1      62.9       2       5     113     168    1011    0.00
    06/23/2017 10:20      43    56.7     20.89        81.4      82.1      62.9       4       7      80      94    1011    0.00
    06/23/2017 10:30      41    56.9     20.89        81.8      82.5      62.9       3       8     137     133    1011    0.00
    06/23/2017 10:40      42    56.8     20.89        82.7      83.3      62.9       4       8     154     174    1011    0.00
    06/23/2017 10:50      41    57.5     20.89        83.6      84.3      62.9       4      10     125     173    1011    0.00
    06/23/2017 11:00      41    57.5     20.89        83.8      84.5      62.9       4       8     163     154    1011    0.00
    06/23/2017 11:10      40    57.6     20.89        84.4      85.3      62.9       5      12     135     158    1011    0.00
    06/23/2017 11:20      42    58.0     20.89        84.8      85.4      62.9       5       9     149     157    1011    0.00
    06/23/2017 11:30      40    58.5     20.89        85.0      85.6      62.9       4       8     147     147    1011    0.00
    06/23/2017 11:40      41    58.2     20.89        85.0      85.6      62.9       6       9     130     151    1011    0.00
    06/23/2017 11:50      41    58.2     20.89        84.1      85.6      62.9       6      11     133     161    1011    0.00
    06/23/2017 12:00      42    58.1     20.89        84.2      85.6      62.9       5      12     126      90    1011    0.00
    06/23/2017 12:10      39    58.3     20.89        85.0      85.6      62.9       5      12     136     164    1011    0.00
    06/23/2017 12:20      40    57.9     20.89        84.7      85.6      62.9       5      10      97      83    1011    0.00
    06/23/2017 12:30      41    57.9     20.89        85.1      85.6      62.9       4       8     113     120    1011    0.00
    06/23/2017 12:40      39    57.9     20.89        85.3      85.7      62.9       4       9     113     125    1011    0.00
    06/23/2017 12:50      41    57.8     20.89        84.7      85.7      62.9       5      13     109     105    1011    0.00
    06/23/2017 13:00      39    58.1     20.89        85.1      86.3      62.9       6      11     135     184    1011    0.00
    06/23/2017 13:10      40    57.6     20.89        85.7      86.8      62.9       5      11     118     139    1011    0.00
    06/23/2017 13:20      40    57.6     20.89        85.0      86.8      62.9       5       9     133     127    1011    0.00
    06/23/2017 13:30      39    57.7     20.89        85.1      86.8      62.9       4      11     119     153    1011    0.00
    06/23/2017 13:40      39    57.4     20.89        84.9      86.8      62.9       5      11     115     138    1011    0.00
    06/23/2017 13:50      39    57.6     20.89        84.7      86.8      62.9       4       9     119      90    1011    0.00
    06/23/2017 14:00      40    57.2     20.89        84.5      86.8      62.9       4       9     110      94    1011    0.00
    06/23/2017 14:10      40    57.3     20.89        84.6      86.8      62.9       5      10      95      85    1011    0.00
    06/23/2017 14:20      40    57.2     20.89        84.4      86.8      62.9       4      10     109      95    1011    0.00
    06/23/2017 14:30      38    57.2     20.89        85.2      86.8      62.9       4       9      94      50    1010    0.00
    06/23/2017 14:40      39    56.8     20.89        85.7      86.8      62.9       5       9      98     106    1010    0.00
    06/23/2017 14:50      39    57.2     20.89        85.1      86.8      62.9       5       8     119     130    1010    0.00
    06/23/2017 15:00      36    56.6     20.89        86.0      86.8      62.9       4       7     113     128    1010    0.00
    06/23/2017 15:10      37    56.5     20.89        86.3      86.8      62.9       5       8      95      72    1010    0.00
    06/23/2017 15:20      36    56.4     20.89        86.3      86.8      62.9       3       6      96     109    1010    0.00
    06/23/2017 15:30      35    56.5     20.89        86.8      88.0      62.9       4       9     136     139    1010    0.00
    06/23/2017 15:40      35    56.2     20.89        87.6      88.1      62.9       4       8     129      96    1010    0.00
    06/23/2017 15:50      36    56.0     20.89        86.6      88.1      62.9       5      10     110      85    1010    0.00
    06/23/2017 16:00      36    56.3     20.89        86.7      88.1      62.9       4       9     120     152    1010    0.00
    06/23/2017 16:10      36    56.2     20.89        86.6      88.1      62.9       4       9     113     207    1010    0.00
    06/23/2017 16:20      36    56.0     20.89        86.0      88.1      62.9       4       7     111      82    1010    0.00
    06/23/2017 16:30      35    55.9     20.89        86.2      88.1      62.9       4       8      97      76    1010    0.00
    06/23/2017 16:40      36    55.8     20.89        86.3      88.1      62.9       4       7     104     125    1010    0.00
    06/23/2017 16:50      36    56.0     20.89        86.4      88.1      62.9       4       8     101      90    1010    0.00
    06/23/2017 17:00      35    56.0     20.89        86.9      88.1      62.9       3       7     123     136    1010    0.00
    06/23/2017 17:10      35    55.5     20.89        86.2      88.1      62.9       4       9     111      89    1010    0.00
    06/23/2017 17:20      38    55.5     20.89        85.1      88.1      62.9       5      10     104      91    1010    0.00
    06/23/2017 17:30      40    56.5     20.89        83.8      88.1      62.9       4      10      99     104    1010    0.00
    06/23/2017 17:40      43    56.8     20.89        82.5      88.1      62.9       4       9     127     164    1010    0.00
    06/23/2017 17:50      45    56.8     20.89        80.8      88.1      62.9       4      10     139     132    1010    0.00
    06/23/2017 18:00      49    56.8     20.89        78.7      88.1      62.9       6      10     139     153    1011    0.00
    06/23/2017 18:10      51    56.9     20.89        76.7      88.1      62.9       3       9     111      88    1011    0.00
    06/23/2017 18:20      53    56.9     20.89        75.6      88.1      62.9       4       7      81      70    1011    0.00
    06/23/2017 18:30      52    56.9     20.89        75.3      88.1      62.9       4       9      67      72    1011    0.00
    06/23/2017 18:40      54    56.6     20.89        74.9      88.1      62.9       5       9      69      55    1011    0.00
    06/23/2017 18:50      55    56.8     20.89        74.4      88.1      62.9       4       8      57      30    1011    0.00
    06/23/2017 19:00      55    56.7     20.89        74.1      88.1      62.9       4       7      56      63    1011    0.00
    06/23/2017 19:10      56    56.7     20.89        73.7      88.1      62.9       4       7      68      47    1011    0.00
    06/23/2017 19:20      57    56.7     20.89        73.3      88.1      62.9       4       7      82      54    1011    0.00
    06/23/2017 19:30      57    56.5     20.89        72.7      88.1      62.9       3       5      77      80    1011    0.00
    06/23/2017 19:40      57    56.4     20.89        72.5      88.1      62.9       3       6      90      95    1011    0.00
    06/23/2017 19:50      59    56.5     20.89        71.9      88.1      62.9       3       6     101      96    1011    0.00
    06/23/2017 20:00      60    56.6     20.89        71.5      88.1      62.9       2       5     105      96    1012    0.00
    06/23/2017 20:10      62    56.6     20.89        70.7      88.1      62.9       3       6     106      71    1012    0.00
    06/23/2017 20:20      63    56.7     20.89        70.3      88.1      62.9       2       5     106      67    1012    0.00
    06/23/2017 20:30      65    57.0     20.89        69.9      88.1      62.9       2       5     136     168    1012    0.00
    06/23/2017 20:40      67    57.1     20.89        68.9      88.1      62.9       2       5      96     129    1012    0.00
    06/23/2017 20:50      67    57.3     20.89        68.4      88.1      62.9       2       4      77      83    1012    0.00
    06/23/2017 21:00      67    57.1     20.89        68.3      88.1      62.9       3       6      58      20    1012    0.00
    06/23/2017 21:10      67    56.9     20.89        68.2      88.1      62.9       4       6      77      80    1012    0.00
    06/23/2017 21:20      68    57.0     20.89        68.0      88.1      62.9       3       5      88      58    1012    0.00
    06/23/2017 21:30      68    57.1     20.89        67.9      88.1      62.9       2       5     108      75    1012    0.00
    06/23/2017 21:40      68    57.1     20.89        67.8      88.1      62.9       2       5     131     146    1012    0.00
    06/23/2017 21:50      69    57.0     20.89        67.5      88.1      62.9       2       4     135     146    1012    0.00
    06/23/2017 22:00      70    56.9     20.89        67.4      88.1      62.9       1       3     157     137    1012    0.00
    06/23/2017 22:10      71    57.1     20.89        66.9      88.1      62.9       2       4     170     159    1012    0.00
    06/23/2017 22:20      71    57.1     20.89        66.8      88.1      62.9       0       2     190     189    1012    0.00
    06/23/2017 22:30      71    57.1     20.89        66.8      88.1      62.9       2       3     175     176    1012    0.00
    06/23/2017 22:40      71    57.1     20.89        66.6      88.1      62.9       0       3     175     171    1012    0.00
    06/23/2017 22:50      71    57.1     20.89        66.7      88.1      62.9       1       3      63      68    1012    0.00
    06/23/2017 23:00      70    57.2     20.89        67.1      88.1      62.9       2       4      62      44    1011    0.00
    06/23/2017 23:10      69    57.1     20.89        67.4      88.1      62.9       2       3      65      70    1011    0.00
    06/23/2017 23:20      69    57.1     20.89        67.7      88.1      62.9       2       5      84      81    1011    0.00
    06/23/2017 23:30      69    57.1     20.89        67.7      88.1      62.9       2       4     131     143    1011    0.00
    06/23/2017 23:40      70    57.1     20.89        67.4      88.1      62.9       2       4     140     141    1011    0.00
    06/23/2017 23:50      70    57.1     20.89        67.2      88.1      62.9       3       5     155     145    1011    0.00
    06/24/2017 00:00      71    57.1     20.89        66.9      88.1      62.9       2       4     166     166    1011    0.00
    06/24/2017 00:10      71    56.9     20.89        66.5      66.7      66.3       2       4     197     190    1011    0.00
    06/24/2017 00:20      71    56.9     20.89        66.3      66.7      66.1       0       1     212     183    1011    0.00
    06/24/2017 00:30      72    56.9     20.89        66.3      66.7      66.1       1       3     183     187    1011    0.00
    06/24/2017 00:40      71    56.9     20.89        66.3      66.7      66.1       0       2     173     176    1011    0.00
    06/24/2017 00:50      71    56.9     20.89        66.4      66.7      66.1       0       0     164     161    1011    0.00
    06/24/2017 01:00      71    56.9     20.89        66.5      66.7      66.1       0       1     347     335    1011    0.00
    06/24/2017 01:10      71    57.1     20.89        66.7      66.9      66.1       0       2     162     166    1011    0.00
    06/24/2017 01:20      72    57.0     20.89        66.7      66.9      66.1       0       0     164     164    1011    0.00
    06/24/2017 01:30      72    57.3     20.89        66.6      66.9      66.1       0       3     174     164    1011    0.00
    06/24/2017 01:40      72    57.3     20.89        66.6      66.9      66.1       3       4     148     141    1011    0.00
    06/24/2017 01:50      71    57.4     20.89        66.7      67.0      66.1       3       5     152     139    1011    0.00
    06/24/2017 02:00      71    57.1     20.89        66.7      67.0      66.1       2       4     136     130    1011    0.00
    06/24/2017 02:10      71    57.1     20.89        66.8      67.0      66.1       1       4     153     140    1011    0.00
    06/24/2017 02:20      71    57.0     20.89        66.7      67.0      66.1       1       4     149     145    1011    0.00
    06/24/2017 02:30      72    56.9     20.89        66.4      67.0      66.1       2       4     145     153    1011    0.00
    06/24/2017 02:40      73    57.0     20.89        66.1      67.0      65.8       1       2     202     185    1011    0.00
    06/24/2017 02:50      74    57.3     20.89        65.8      67.0      65.6       2       3     163     162    1011    0.00
    06/24/2017 03:00      74    57.3     20.89        65.9      67.0      65.6       2       5     147     149    1011    0.00
    06/24/2017 03:10      74    57.3     20.89        65.9      67.0      65.6       1       4     148     157    1011    0.00
    06/24/2017 03:20      74    57.2     20.89        65.9      67.0      65.6       0       2     102      81    1010    0.00
    06/24/2017 03:30      74    57.2     20.89        65.9      67.0      65.6       2       3     142     136    1010    0.00
    06/24/2017 03:40      73    57.2     20.89        65.9      67.0      65.6       1       3     106      91    1010    0.00
    06/24/2017 03:50      73    57.2     20.89        65.9      67.0      65.6       1       2     118      99    1010    0.00
    06/24/2017 04:00      74    57.1     20.89        65.7      67.0      65.4       2       3      73      52    1010    0.00
    06/24/2017 04:10      75    57.1     20.89        65.5      67.0      65.3       1       3     138     164    1010    0.00
    06/24/2017 04:20      75    57.2     20.89        65.4      67.0      65.2       2       3     131     145    1010    0.00
    06/24/2017 04:30      75    57.2     20.89        65.3      67.0      65.0       1       3     143     178    1010    0.00
    06/24/2017 04:40      76    57.2     20.89        65.1      67.0      64.9       2       4     136     158    1010    0.00
    06/24/2017 04:50      76    57.3     20.89        65.1      67.0      64.9       1       3     131     144    1010    0.00
    06/24/2017 05:00      76    57.2     20.89        65.1      67.0      64.9       0       2     160     132    1010    0.00
    06/24/2017 05:10      76    57.3     20.89        65.0      67.0      64.8       1       3     188     184    1010    0.00
    06/24/2017 05:20      76    57.4     20.89        65.0      67.0      64.8       3       5     191     200    1010    0.00
    06/24/2017 05:30      75    57.5     20.89        65.3      67.0      64.8       2       3     263     196    1010    0.00
    06/24/2017 05:40      73    57.5     20.89        66.0      67.0      64.8       2       6     199     192    1010    0.00
    06/24/2017 05:50      72    57.5     20.89        66.5      67.0      64.8       4       7     153     161    1011    0.00
    06/24/2017 06:00      71    57.5     20.89        67.0      67.3      64.8       2       5     130     169    1011    0.00
    06/24/2017 06:10      70    57.4     20.89        67.1      67.5      64.8       0       3      51      51    1011    0.00
    06/24/2017 06:20      70    57.5     20.89        67.5      67.7      64.8       2       4      93     147    1011    0.00
    06/24/2017 06:30      69    57.4     20.89        67.6      67.8      64.8       2       4      79      78    1011    0.00
    06/24/2017 06:40      69    57.5     20.89        68.0      68.3      64.8       2       4      76     116    1011    0.00
    06/24/2017 06:50      66    57.6     20.89        68.8      69.4      64.8       2       4      52      11    1011    0.00
    06/24/2017 07:00      64    57.6     20.89        69.9      70.4      64.8       3       5      65      70    1011    0.00
    06/24/2017 07:10      63    57.5     20.89        70.5      70.8      64.8       2       4      92      76    1011    0.00
    06/24/2017 07:20      59    57.8     20.89        72.2      73.1      64.8       1       5     148      75    1011    0.00
    06/24/2017 07:30      57    57.6     20.89        73.4      73.8      64.8       2       4      80      69    1011    0.00
    06/24/2017 07:40      57    57.6     20.89        73.3      73.9      64.8       2       5     144     165    1011    0.00
    06/24/2017 07:50      58    57.6     20.89        73.3      73.9      64.8       3       5     166     168    1011    0.00
    06/24/2017 08:00      56    57.8     20.89        74.1      74.5      64.8       2       6     102     157    1011    0.00
    06/24/2017 08:10      55    57.7     20.89        74.8      75.3      64.8       0       4     287     219    1012    0.00
    06/24/2017 08:20      54    57.8     20.89        75.7      76.1      64.8       2       3     243     199    1012    0.00
    06/24/2017 08:30      50    57.4     20.89        76.7      77.6      64.8       2       5     149     164    1012    0.00
    06/24/2017 08:40      49    57.2     20.89        77.4      77.6      64.8       2       4      67      43    1011    0.00
    06/24/2017 08:50      50    57.3     20.89        76.9      77.6      64.8       1       4      36      89    1011    0.00
    06/24/2017 09:00      49    57.5     20.89        77.5      77.9      64.8       2       3     163      94    1011    0.00
    06/24/2017 09:10      46    57.8     20.89        78.5      79.7      64.8       2       5     149     111    1011    0.00
    06/24/2017 09:20      47    57.0     20.89        78.9      79.7      64.8       1       4     122     185    1011    0.00
    06/24/2017 09:30      45    57.3     20.89        79.9      80.6      64.8       2       6     100      64    1011    0.00
    06/24/2017 09:40      43    56.8     20.89        81.2      82.0      64.8       2       5      88     111    1011    0.00
    06/24/2017 09:50      42    56.9     20.89        82.0      82.3      64.8       2       6     140     149    1011    0.00
    06/24/2017 10:00      43    56.7     20.89        81.5      82.3      64.8       2       7      56     148    1010    0.00
    06/24/2017 10:10      43    56.9     20.89        81.7      82.4      64.8       5      10     153     141    1011    0.00
    06/24/2017 10:20      42    56.8     20.89        82.2      82.5      64.8       5      10     152     177    1011    0.00
    06/24/2017 10:30      45    57.0     20.89        81.4      82.5      64.8       4      10     128     151    1011    0.00
    06/24/2017 10:40      52    58.1     20.89        79.1      82.5      64.8       4      11     119     146    1011    0.00
    06/24/2017 10:50      51    58.5     20.89        78.0      82.5      64.8       3       6     119     159    1011    0.00
    06/24/2017 11:00      50    58.1     20.89        78.0      82.5      64.8       3       6      83      87    1011    0.00
    06/24/2017 11:10      46    57.9     20.89        79.2      82.5      64.8       3       6      67      85    1011    0.00
    06/24/2017 11:20      46    58.3     20.89        80.8      82.5      64.8       3       7     112     147    1011    0.00